Panama City Beach, FL (32413)

5:14 AM CDT on September 20, 2014 (GMT -0500)
King's Harbor | Change Station
CLOSE
Current Station
Personal Weather Station
Location: Panama City, FL
Elevation: 16 ft
Nearby Weather Stations

Elev 16 ft 30.21 °N, 85.70 °W | Updated 6 seconds ago

Clear
Clear
68.9 °F
Feels Like 68.9 °F
N
0.0
Wind Variable Wind from ENE
Gusts 1.0 mph

Today
High -- | Low -- °F
--% Chance of Precip.
Yesterday
High -- | Low -- °F
Precip. -- in
6:30 AM 6:41 PM
Waning Crescent, 13% visible
Pressure 29.97 in
Visibility 10.0 miles
Clouds Clear
Dew Point 67 °F
Humidity 95%
Rainfall 0.00 in
Snow Depth Not available.
UV 0 out of 12
Pollen 8.90 out of 12
Air Quality Not available.
Flu Activity Not available.
METAR KPAM 200958Z AUTO 05006KT 10SM CLR 21/21 A2996 RMK AO2 SLP148 T02070205 $

More Conditions Fewer Conditions

Pressure 29.97 in
Visibility 10.0 miles
Clouds Clear
Dew Point 67 °F
Humidity 95%
Rainfall 0.00 in
Snow Depth Not available.
UV 0 out of 12
Pollen 8.90 out of 12
Air Quality Not available.
Flu Activity Not available.
METAR KPAM 200958Z AUTO 05006KT 10SM CLR 21/21 A2996 RMK AO2 SLP148 T02070205 $

More Conditions Fewer Conditions

10-Day Weather Forecast

Almanac

Astronomy

Sep. 20, 2014 Rise Set
Actual Time 6:30 AM CDT 6:41 PM CDT
Civil Twilight 6:06 AM CDT 7:05 PM CDT
Nautical Twilight 5:38 AM CDT 7:33 PM CDT
Astronomical Twilight 5:09 AM CDT 8:01 PM CDT
Moon 3:20 AM CDT 4:35 PM CDT
Length of Visible Light 12h 59m
Length of Day
12h 11m
Tomorrow will be 1m 49s shorter.
Waning Crescent, 13% of the Moon is Illuminated
Today
Waning Crescent
Sep 24
New
Oct 1
First Quarter
Oct 8
Full
Oct 15
Last Quarter

Today's Extremes

State Highs State Lows

Community

WunderPhotos

Upload Photos

1,754,824 photos uploaded!

WunderBlogs® & News

Nearby

Snow Depth

Station Depth Elevation
No new snow has been reported.

Earthquake Activity

City Distance Mag. Time & Date
No recent earthquake activity has been reported nearby.
Minimum magnitude displayed is 2.5.

Coastal Water Temperatures

Place Temperature
Panama City, FL 86.0 °F
Panama City Beach, FL 84.0 °F
Apalachicola, FL 82.0 °F

Nearby Weather Stations